createdAt,value
2022-08-05T00:01:28.573Z,48.60
2022-08-05T00:03:56.889Z,48.30
2022-08-05T00:06:32.279Z,48.20
2022-08-05T00:09:02.661Z,48.00
2022-08-05T00:11:34.708Z,48.40
2022-08-05T00:14:02.508Z,47.50
2022-08-05T00:16:52.347Z,47.30
2022-08-05T00:19:22.582Z,48.70
2022-08-05T00:21:49.981Z,50.20
2022-08-05T00:24:19.176Z,48.00
2022-08-05T00:26:52.990Z,47.00
2022-08-05T00:29:22.397Z,46.40
2022-08-05T00:32:10.693Z,45.70
2022-08-05T00:34:55.924Z,45.50
2022-08-05T00:37:23.226Z,44.90
2022-08-05T00:39:58.145Z,44.60
2022-08-05T00:42:32.780Z,44.00
2022-08-05T00:44:59.902Z,43.40
2022-08-05T00:47:26.819Z,43.40
2022-08-05T00:50:13.422Z,43.20
2022-08-05T00:52:40.280Z,42.90
2022-08-05T00:55:07.144Z,42.60
2022-08-05T00:57:55.503Z,42.50
2022-08-05T01:00:22.041Z,42.50
2022-08-05T01:02:52.997Z,42.60
2022-08-05T01:05:19.827Z,42.30
2022-08-05T01:08:40.698Z,42.20
2022-08-05T01:10:52.727Z,42.10
2022-08-05T01:13:22.390Z,41.70
2022-08-05T01:15:56.969Z,41.90
2022-08-05T01:18:25.597Z,41.70
2022-08-05T01:20:54.266Z,41.80
2022-08-05T01:23:23.901Z,41.60
2022-08-05T01:26:20.280Z,41.20
2022-08-05T01:29:00.585Z,41.10
2022-08-05T01:31:44.550Z,41.00
2022-08-05T01:34:11.807Z,40.90
2022-08-05T01:36:49.329Z,41.10
2022-08-05T01:39:16.169Z,40.70
2022-08-05T01:42:04.248Z,41.40
2022-08-05T01:44:34.437Z,42.40
2022-08-05T01:47:02.342Z,44.70
2022-08-05T01:50:00.580Z,45.40
2022-08-05T01:52:19.160Z,45.90
2022-08-05T01:54:46.902Z,46.20
2022-08-05T01:58:29.107Z,46.50
2022-08-05T02:00:11.649Z,46.60
2022-08-05T02:02:46.589Z,46.50
2022-08-05T02:05:23.525Z,46.90
2022-08-05T02:08:00.305Z,47.10
2022-08-05T02:10:28.771Z,47.40
2022-08-05T02:13:02.170Z,47.60
2022-08-05T02:15:35.132Z,47.60
2022-08-05T02:18:32.173Z,47.90
2022-08-05T02:20:52.081Z,48.30
2022-08-05T02:23:19.646Z,48.50
2022-08-05T02:25:50.130Z,48.70
2022-08-05T02:28:28.929Z,48.80
2022-08-05T02:30:59.543Z,48.90
2022-08-05T02:33:38.525Z,49.40
2022-08-05T02:36:06.340Z,49.70
2022-08-05T02:38:36.233Z,49.80
2022-08-05T02:41:14.771Z,50.00
2022-08-05T02:44:06.485Z,50.20
2022-08-05T02:46:31.567Z,50.40
2022-08-05T02:48:58.372Z,50.70
2022-08-05T02:51:28.273Z,50.70
2022-08-05T02:54:12.015Z,50.90
2022-08-05T02:56:58.765Z,51.20
2022-08-05T02:59:27.151Z,51.90
2022-08-05T03:01:58.221Z,51.50
2022-08-05T03:04:25.552Z,51.50
2022-08-05T03:06:54.483Z,51.70
2022-08-05T03:09:36.453Z,51.80
2022-08-05T03:12:05.860Z,51.80
2022-08-05T03:14:32.591Z,51.90
2022-08-05T03:17:03.348Z,52.20
2022-08-05T03:19:36.286Z,52.20
2022-08-05T03:22:04.969Z,52.30
2022-08-05T03:24:43.356Z,52.40
2022-08-05T03:27:13.920Z,52.50
2022-08-05T03:29:44.458Z,52.70
2022-08-05T03:32:30.855Z,52.80
2022-08-05T03:34:58.284Z,52.80
2022-08-05T03:37:25.304Z,53.00
2022-08-05T03:39:58.990Z,53.10
2022-08-05T03:42:29.203Z,53.20
2022-08-05T03:44:58.774Z,53.20
2022-08-05T03:47:25.910Z,53.30
2022-08-05T03:49:57.548Z,53.30
2022-08-05T03:52:50.201Z,53.50
2022-08-05T03:56:05.358Z,53.50
2022-08-05T03:57:59.096Z,53.70
2022-08-05T04:00:29.807Z,53.70
2022-08-05T04:02:59.230Z,53.70
2022-08-05T04:05:27.927Z,53.80
2022-08-05T04:08:01.094Z,53.90
2022-08-05T04:10:30.844Z,54.00
2022-08-05T04:13:00.186Z,54.10
2022-08-05T04:15:33.103Z,54.20
2022-08-05T04:18:03.937Z,54.20
2022-08-05T04:20:34.544Z,54.40
2022-08-05T04:23:01.667Z,54.30
2022-08-05T04:25:57.804Z,54.40
2022-08-05T04:28:15.195Z,54.40
2022-08-05T04:30:44.201Z,54.60
2022-08-05T04:33:10.917Z,54.50
2022-08-05T04:36:16.356Z,54.60
2022-08-05T04:38:39.840Z,54.60
2022-08-05T04:41:07.367Z,54.70
2022-08-05T04:43:36.260Z,54.90
2022-08-05T04:46:05.037Z,54.90
2022-08-05T04:48:32.029Z,55.00
2022-08-05T04:51:02.811Z,54.90
2022-08-05T04:53:36.680Z,55.00
2022-08-05T04:56:32.957Z,55.00
2022-08-05T04:58:53.676Z,55.10
2022-08-05T05:02:06.326Z,55.10
2022-08-05T05:04:07.208Z,55.30
2022-08-05T05:06:36.068Z,55.20
2022-08-05T05:09:14.411Z,55.30
2022-08-05T05:11:55.643Z,55.10
2022-08-05T05:14:31.766Z,55.40
2022-08-05T05:17:02.150Z,55.50
2022-08-05T05:19:37.126Z,55.30
2022-08-05T05:22:22.742Z,55.60
2022-08-05T05:24:57.669Z,55.50
2022-08-05T05:27:44.776Z,55.60
2022-08-05T05:30:28.677Z,55.70
2022-08-05T05:32:55.953Z,55.60
2022-08-05T05:35:23.120Z,55.70
2022-08-05T05:38:00.380Z,55.70
2022-08-05T05:40:29.136Z,55.60
2022-08-05T05:42:57.017Z,55.70
2022-08-05T05:45:24.766Z,55.80
2022-08-05T05:48:06.051Z,55.70
2022-08-05T05:50:41.077Z,56.00
2022-08-05T05:53:21.399Z,55.90
2022-08-05T05:56:00.651Z,55.90
2022-08-05T05:58:31.450Z,55.90
2022-08-05T06:01:12.816Z,56.20
2022-08-05T06:04:00.854Z,55.90
2022-08-05T06:06:28.008Z,56.20
2022-08-05T06:08:58.304Z,56.10
2022-08-05T06:11:25.046Z,56.30
2022-08-05T06:13:53.943Z,56.10
2022-08-05T06:16:29.496Z,56.20
2022-08-05T06:19:01.236Z,56.30
2022-08-05T06:21:36.983Z,56.40
2022-08-05T06:24:04.646Z,56.30
2022-08-05T06:26:33.939Z,56.30
2022-08-05T06:29:03.466Z,56.30
2022-08-05T06:31:33.679Z,56.40
2022-08-05T06:34:07.488Z,56.30
2022-08-05T06:36:56.661Z,56.40
2022-08-05T06:39:26.909Z,56.50
2022-08-05T06:41:54.346Z,56.40
2022-08-05T06:44:22.044Z,56.40
2022-08-05T06:46:50.777Z,56.50
2022-08-05T06:49:18.960Z,56.50
2022-08-05T06:52:04.898Z,56.50
2022-08-05T06:54:31.640Z,56.50
2022-08-05T06:57:56.637Z,56.50
2022-08-05T06:59:54.990Z,56.70
2022-08-05T07:02:23.196Z,56.50
2022-08-05T07:04:49.967Z,56.60
2022-08-05T07:07:24.062Z,56.60
2022-08-05T07:10:03.337Z,57.00
2022-08-05T07:12:49.337Z,57.60
2022-08-05T07:16:01.159Z,58.10
2022-08-05T07:18:29.123Z,57.50
2022-08-05T07:20:57.001Z,58.00
2022-08-05T07:23:26.110Z,58.10
2022-08-05T07:25:56.338Z,58.40
2022-08-05T07:28:25.252Z,58.90
2022-08-05T07:30:55.111Z,59.40
2022-08-05T07:33:36.963Z,60.00
2022-08-05T07:36:20.195Z,60.10
2022-08-05T07:38:49.022Z,60.60
2022-08-05T07:42:13.762Z,60.80
2022-08-05T07:44:04.931Z,60.80
2022-08-05T07:46:31.856Z,61.10
2022-08-05T07:49:05.566Z,61.30
2022-08-05T07:51:40.417Z,61.40
2022-08-05T07:54:09.990Z,62.60
2022-08-05T07:56:39.139Z,62.50
2022-08-05T07:59:31.050Z,62.60
2022-08-05T08:02:15.830Z,62.80
2022-08-05T08:04:48.332Z,63.50
2022-08-05T08:07:16.098Z,63.60
2022-08-05T08:09:45.060Z,63.30
2022-08-05T08:12:34.993Z,63.50
2022-08-05T08:15:02.414Z,63.30
2022-08-05T08:17:30.312Z,63.20
2022-08-05T08:20:22.390Z,63.20
2022-08-05T08:22:43.858Z,62.80
2022-08-05T08:25:16.128Z,63.40
2022-08-05T08:27:47.425Z,63.30
2022-08-05T08:30:29.976Z,63.40
2022-08-05T08:33:13.978Z,62.90
2022-08-05T08:35:52.751Z,62.70
2022-08-05T08:38:35.308Z,63.00
2022-08-05T08:41:07.425Z,63.00
2022-08-05T08:45:16.585Z,63.00
2022-08-05T08:46:22.057Z,63.00
2022-08-05T08:49:06.238Z,62.90
2022-08-05T08:52:04.078Z,63.00
2022-08-05T08:54:22.383Z,63.00
2022-08-05T08:56:54.338Z,62.90
2022-08-05T08:59:23.394Z,62.90
2022-08-05T09:01:57.470Z,62.70
2022-08-05T09:04:30.274Z,62.70
2022-08-05T09:06:57.799Z,62.60
2022-08-05T09:09:26.032Z,62.50
2022-08-05T09:12:14.453Z,62.40
2022-08-05T09:14:57.502Z,62.70
2022-08-05T09:17:40.950Z,62.50
2022-08-05T09:20:10.465Z,62.40
2022-08-05T09:22:55.652Z,62.50
2022-08-05T09:26:01.372Z,62.50
2022-08-05T09:28:23.426Z,62.70
2022-08-05T09:30:56.819Z,62.40
2022-08-05T09:33:23.738Z,62.20
2022-08-05T09:36:11.564Z,62.40
2022-08-05T09:38:55.567Z,62.50
2022-08-05T09:41:23.921Z,62.20
2022-08-05T09:43:52.658Z,62.50
2022-08-05T09:46:28.725Z,62.40
2022-08-05T09:49:06.711Z,62.20
2022-08-05T09:51:36.556Z,62.30
2022-08-05T09:54:07.082Z,62.30
2022-08-05T09:56:34.430Z,62.50
2022-08-05T09:59:05.943Z,62.20
2022-08-05T10:01:36.915Z,62.30
2022-08-05T10:04:12.415Z,62.20
2022-08-05T10:06:54.891Z,62.00
2022-08-05T10:09:28.146Z,62.20
2022-08-05T10:12:30.497Z,62.20
2022-08-05T10:14:54.633Z,62.20
2022-08-05T10:17:39.855Z,62.10
2022-08-05T10:20:09.720Z,62.20
2022-08-05T10:22:42.915Z,62.10
2022-08-05T10:25:15.640Z,62.00
2022-08-05T10:28:12.727Z,62.20
2022-08-05T10:32:48.910Z,62.20
2022-08-05T10:33:16.217Z,62.20
2022-08-05T10:35:44.379Z,62.00
2022-08-05T10:38:12.129Z,62.00
2022-08-05T10:40:43.710Z,62.20
2022-08-05T10:43:24.204Z,62.20
2022-08-05T10:46:06.648Z,61.90
2022-08-05T10:48:52.916Z,62.00
2022-08-05T10:51:29.120Z,62.00
2022-08-05T10:53:58.393Z,62.00
2022-08-05T10:56:28.626Z,62.00
2022-08-05T10:58:55.735Z,62.00
2022-08-05T11:01:55.521Z,62.00
2022-08-05T11:04:22.992Z,61.90
2022-08-05T11:07:04.571Z,62.00
2022-08-05T11:09:46.299Z,61.90
2022-08-05T11:12:32.401Z,61.70
2022-08-05T11:15:20.677Z,61.60
2022-08-05T11:17:58.178Z,61.50
2022-08-05T11:20:43.688Z,61.50
2022-08-05T11:24:02.316Z,61.40
2022-08-05T11:26:28.466Z,61.40
2022-08-05T11:29:06.788Z,61.30
2022-08-05T11:31:56.486Z,60.90
2022-08-05T11:34:36.343Z,61.30
2022-08-05T11:37:03.153Z,61.20
2022-08-05T11:40:00.758Z,61.20
2022-08-05T11:42:30.060Z,61.10
2022-08-05T11:45:01.859Z,61.50
2022-08-05T11:47:49.253Z,61.60
2022-08-05T11:50:16.684Z,61.90
2022-08-05T11:52:43.919Z,62.00
2022-08-05T11:55:12.840Z,61.90
2022-08-05T11:58:08.457Z,60.90
2022-08-05T12:00:30.396Z,60.10
2022-08-05T12:02:57.482Z,60.20
2022-08-05T12:05:32.320Z,60.10
2022-08-05T12:08:10.020Z,59.70
2022-08-05T12:10:38.561Z,60.90
2022-08-05T12:13:15.625Z,61.60
2022-08-05T12:15:45.033Z,61.90
2022-08-05T12:18:14.787Z,61.70
2022-08-05T12:20:41.656Z,61.40
2022-08-05T12:23:09.707Z,60.90
2022-08-05T12:25:49.399Z,60.40
2022-08-05T12:28:30.995Z,60.00
2022-08-05T12:30:58.191Z,60.80
2022-08-05T12:33:36.266Z,61.10
2022-08-05T12:36:03.774Z,61.60
2022-08-05T12:38:35.534Z,61.00
2022-08-05T12:41:03.625Z,61.00
2022-08-05T12:43:32.011Z,61.40
2022-08-05T12:45:59.157Z,61.30
2022-08-05T12:48:32.398Z,61.60
2022-08-05T12:52:10.224Z,62.00
2022-08-05T12:54:04.169Z,61.70
2022-08-05T12:56:42.072Z,62.00
2022-08-05T12:59:21.029Z,62.00
2022-08-05T13:02:07.332Z,61.60
2022-08-05T13:04:35.441Z,61.30
2022-08-05T13:07:15.886Z,61.50
2022-08-05T13:09:50.632Z,61.10
2022-08-05T13:12:18.448Z,62.00
2022-08-05T13:14:45.231Z,62.30
2022-08-05T13:17:27.693Z,62.20
2022-08-05T13:20:23.594Z,62.40
2022-08-05T13:22:52.192Z,62.20
2022-08-05T13:25:21.989Z,62.30
2022-08-05T13:28:06.816Z,62.50
2022-08-05T13:30:39.264Z,61.90
2022-08-05T13:33:06.171Z,61.50
2022-08-05T13:35:47.114Z,61.40
2022-08-05T13:38:28.416Z,60.90
2022-08-05T13:40:58.741Z,61.40
2022-08-05T13:43:44.561Z,60.80
2022-08-05T13:46:13.542Z,60.60
2022-08-05T13:48:57.908Z,60.30
2022-08-05T13:51:40.044Z,62.00
2022-08-05T13:54:11.700Z,62.00
2022-08-05T13:56:45.064Z,61.70
2022-08-05T13:59:20.263Z,61.60
2022-08-05T14:01:57.528Z,61.40
2022-08-05T14:04:43.637Z,61.70
2022-08-05T14:07:25.873Z,60.80
2022-08-05T14:10:05.425Z,60.50
2022-08-05T14:12:35.507Z,60.30
2022-08-05T14:15:05.967Z,61.30
2022-08-05T14:17:49.043Z,61.40
2022-08-05T14:20:17.420Z,60.90
2022-08-05T14:22:50.247Z,60.80
2022-08-05T14:25:18.992Z,60.80
2022-08-05T14:27:49.523Z,60.60
2022-08-05T14:30:20.776Z,60.40
2022-08-05T14:32:48.886Z,59.70
2022-08-05T14:35:16.337Z,60.60
2022-08-05T14:37:52.151Z,60.20
2022-08-05T14:40:24.509Z,60.90
2022-08-05T14:42:51.842Z,60.90
2022-08-05T14:45:19.072Z,60.60
2022-08-05T14:48:04.116Z,60.70
2022-08-05T14:50:33.470Z,59.70
2022-08-05T14:53:06.790Z,60.90
2022-08-05T14:55:39.581Z,61.20
2022-08-05T14:58:12.246Z,60.70
2022-08-05T15:00:58.267Z,60.90
2022-08-05T15:03:26.145Z,61.70
2022-08-05T15:06:12.840Z,60.80
2022-08-05T15:08:59.009Z,60.80
2022-08-05T15:11:52.724Z,60.90
2022-08-05T15:14:33.334Z,60.80
2022-08-05T15:17:03.765Z,60.80
2022-08-05T15:19:30.925Z,61.10
2022-08-05T15:22:00.269Z,60.70
2022-08-05T15:24:27.977Z,60.90
2022-08-05T15:26:57.347Z,61.40
2022-08-05T15:29:30.293Z,61.40
2022-08-05T15:32:02.331Z,61.50
2022-08-05T15:34:33.818Z,61.80
2022-08-05T15:37:06.446Z,61.80
2022-08-05T15:41:00.570Z,61.60
2022-08-05T15:42:53.705Z,61.60
2022-08-05T15:45:15.168Z,61.70
2022-08-05T15:47:42.315Z,61.60
2022-08-05T15:50:09.338Z,61.70
2022-08-05T15:52:53.585Z,62.10
2022-08-05T15:55:25.119Z,61.90
2022-08-05T15:58:08.612Z,61.90
2022-08-05T16:01:03.555Z,63.00
2022-08-05T16:03:22.073Z,62.00
2022-08-05T16:05:52.751Z,62.00
2022-08-05T16:08:22.647Z,62.10
2022-08-05T16:10:50.812Z,61.90
2022-08-05T16:13:19.365Z,62.10
2022-08-05T16:15:51.923Z,61.70
2022-08-05T16:18:18.831Z,61.90
2022-08-05T16:20:46.406Z,61.70
2022-08-05T16:23:13.221Z,61.70
2022-08-05T16:25:40.233Z,61.90
2022-08-05T16:28:10.509Z,61.90
2022-08-05T16:30:38.064Z,61.60
2022-08-05T16:33:05.552Z,62.00
2022-08-05T16:35:34.605Z,61.10
2022-08-05T16:38:24.076Z,57.60
2022-08-05T16:41:00.830Z,56.10
2022-08-05T16:43:29.107Z,54.30
2022-08-05T16:46:06.411Z,53.40
2022-08-05T16:48:37.068Z,52.40
2022-08-05T16:51:09.976Z,51.60
2022-08-05T17:00:40.179Z,50.00
2022-08-05T17:03:15.463Z,49.10
2022-08-05T17:05:50.256Z,48.60
2022-08-05T17:08:36.710Z,48.20
2022-08-05T17:11:08.821Z,47.80
2022-08-05T17:13:37.351Z,48.70
2022-08-05T17:16:28.186Z,49.70
2022-08-05T17:18:51.641Z,50.00
2022-08-05T17:21:19.173Z,50.60
2022-08-05T17:24:04.959Z,51.10
2022-08-05T17:26:32.951Z,51.40
2022-08-05T17:28:59.947Z,51.60
2022-08-05T17:31:57.167Z,52.00
2022-08-05T17:34:21.004Z,52.10
2022-08-05T17:36:57.054Z,52.50
2022-08-05T17:39:33.559Z,52.80
2022-08-05T17:42:18.920Z,52.90
2022-08-05T17:44:50.208Z,53.00
2022-08-05T17:47:22.587Z,53.50
2022-08-05T17:49:51.559Z,53.60
2022-08-05T17:52:27.788Z,53.50
2022-08-05T17:54:55.082Z,53.60
2022-08-05T17:57:22.204Z,53.80
2022-08-05T18:00:05.086Z,54.00
2022-08-05T18:02:33.199Z,54.20
2022-08-05T18:05:06.433Z,54.20
2022-08-05T18:07:41.913Z,54.40
2022-08-05T18:10:10.802Z,54.50
2022-08-05T18:12:38.041Z,54.60
2022-08-05T18:15:05.176Z,54.70
2022-08-05T18:17:59.099Z,55.00
2022-08-05T18:20:29.347Z,55.10
2022-08-05T18:22:58.472Z,55.00
2022-08-05T18:25:33.156Z,55.20
2022-08-05T18:28:01.641Z,55.30
2022-08-05T18:30:33.215Z,55.30
2022-08-05T18:33:01.245Z,55.50
2022-08-05T18:36:00.094Z,55.50
2022-08-05T18:38:19.435Z,55.70
2022-08-05T18:41:55.604Z,55.80
2022-08-05T18:43:43.236Z,55.90
2022-08-05T18:46:20.231Z,55.90
2022-08-05T18:48:52.248Z,56.20
2022-08-05T18:52:06.808Z,56.30
2022-08-05T18:54:28.573Z,56.50
2022-08-05T18:56:59.681Z,57.20
2022-08-05T18:59:43.777Z,56.70
2022-08-05T19:02:26.960Z,56.80
2022-08-05T19:05:03.173Z,56.80
2022-08-05T19:07:45.069Z,57.10
2022-08-05T19:10:13.330Z,57.10
2022-08-05T19:12:40.478Z,57.20
2022-08-05T19:15:10.698Z,57.30
2022-08-05T19:18:09.674Z,57.50
2022-08-05T19:20:41.753Z,57.50
2022-08-05T19:24:06.210Z,57.70
2022-08-05T19:26:02.009Z,58.00
2022-08-05T19:28:33.711Z,58.90
2022-08-05T19:31:01.102Z,58.90
2022-08-05T19:33:35.090Z,59.30
2022-08-05T19:36:02.890Z,56.90
2022-08-05T19:38:34.073Z,55.30
2022-08-05T19:41:02.737Z,56.40
2022-08-05T19:44:04.264Z,57.00
2022-08-05T19:46:29.391Z,57.30
2022-08-05T19:49:01.071Z,57.60
2022-08-05T19:52:04.937Z,58.10
2022-08-05T19:54:21.985Z,58.50
2022-08-05T19:56:55.676Z,56.70
2022-08-05T20:00:00.619Z,54.60
2022-08-05T20:02:09.362Z,53.60
2022-08-05T20:04:37.797Z,52.80
2022-08-05T20:07:13.007Z,52.20
2022-08-05T20:09:53.721Z,51.90
2022-08-05T20:12:23.521Z,51.50
2022-08-05T20:14:52.090Z,51.40
2022-08-05T20:17:19.977Z,52.50
2022-08-05T20:19:50.924Z,52.10
2022-08-05T20:22:23.677Z,51.80
2022-08-05T20:24:53.846Z,51.60
2022-08-05T20:27:21.094Z,51.20
2022-08-05T20:29:57.902Z,50.90
2022-08-05T20:32:25.636Z,50.50
2022-08-05T20:34:52.442Z,50.20
2022-08-05T20:38:04.975Z,49.90
2022-08-05T20:40:06.577Z,49.70
2022-08-05T20:42:33.409Z,49.30
2022-08-05T20:45:02.625Z,49.60
2022-08-05T20:47:32.258Z,51.10
2022-08-05T20:49:59.588Z,51.40
2022-08-05T20:52:29.126Z,52.30
2022-08-05T20:54:59.532Z,52.20
2022-08-05T20:57:44.458Z,52.50
2022-08-05T21:00:40.172Z,52.90
2022-08-05T21:03:04.622Z,53.10
2022-08-05T21:05:48.250Z,53.50
2022-08-05T21:08:21.191Z,53.80
2022-08-05T21:10:53.728Z,54.10
2022-08-05T21:13:36.780Z,54.20
2022-08-05T21:16:07.366Z,54.50
2022-08-05T21:18:34.459Z,54.90
2022-08-05T21:21:02.670Z,55.30
2022-08-05T21:23:29.431Z,55.40
2022-08-05T21:26:08.161Z,55.50
2022-08-05T21:28:39.707Z,55.60
2022-08-05T21:31:14.495Z,55.80
2022-08-05T21:33:43.421Z,55.90
2022-08-05T21:36:27.657Z,56.10
2022-08-05T21:38:57.037Z,56.20
2022-08-05T21:41:26.036Z,56.20
2022-08-05T21:44:04.137Z,56.50
2022-08-05T21:46:34.935Z,56.70
2022-08-05T21:49:04.654Z,56.70
2022-08-05T21:52:21.813Z,57.40
2022-08-05T21:54:30.620Z,57.10
2022-08-05T21:57:28.398Z,57.10
2022-08-05T22:00:01.914Z,57.30
2022-08-05T22:02:31.531Z,57.40
2022-08-05T22:04:58.578Z,57.70
2022-08-05T22:07:40.101Z,57.80
2022-08-05T22:10:12.378Z,57.60
2022-08-05T22:12:40.299Z,58.00
2022-08-05T22:15:16.542Z,58.00
2022-08-05T22:17:48.780Z,57.80
2022-08-05T22:20:26.740Z,57.90
2022-08-05T22:23:17.198Z,57.80
2022-08-05T22:26:10.102Z,57.70
2022-08-05T22:28:38.596Z,57.90
2022-08-05T22:31:05.989Z,58.00
2022-08-05T22:33:56.726Z,58.20
2022-08-05T22:36:19.799Z,58.00
2022-08-05T22:38:51.006Z,58.70
2022-08-05T22:42:05.513Z,58.90
2022-08-05T22:44:07.662Z,59.80
2022-08-05T22:46:39.979Z,60.80
2022-08-05T22:49:23.203Z,60.60
2022-08-05T22:52:04.775Z,59.70
2022-08-05T22:54:33.630Z,59.90
2022-08-05T22:57:03.567Z,59.10
2022-08-05T22:59:47.356Z,58.80
2022-08-05T23:02:17.900Z,59.00
2022-08-05T23:04:51.641Z,59.50
2022-08-05T23:07:21.952Z,59.10
2022-08-05T23:09:57.531Z,60.00
2022-08-05T23:12:32.816Z,60.20
2022-08-05T23:15:01.372Z,60.30
2022-08-05T23:17:34.624Z,60.00
2022-08-05T23:20:16.771Z,59.70
2022-08-05T23:22:48.315Z,60.40
2022-08-05T23:25:16.911Z,60.60
2022-08-05T23:28:00.525Z,60.20
2022-08-05T23:30:29.145Z,60.70
2022-08-05T23:32:58.012Z,60.70
2022-08-05T23:35:28.621Z,60.90
2022-08-05T23:38:01.275Z,60.90
2022-08-05T23:40:28.076Z,60.90
2022-08-05T23:42:54.867Z,61.10
2022-08-05T23:45:23.749Z,61.20
2022-08-05T23:47:53.694Z,61.20
2022-08-05T23:50:20.735Z,61.10
2022-08-05T23:52:50.108Z,61.20
2022-08-05T23:55:17.480Z,61.40
2022-08-05T23:57:44.227Z,61.30
